Time;durP1;ratioP1;P1;durP2;ratioP2;P2;SDS_P1;SDS_P2;PMS_P1;PMS_P2;Temp;Humidity;BMP_temperature;BMP_pressure;BME280_temperature;BME280_humidity;BME280_pressure;Samples;Min_cycle;Max_cycle;Signal;HPM_P1;HPM_P2
2021/10/11 00:01:17;;;;;;;0.30;0.20;;;;;;;3.47;100.00;101262.00;5052754;28;20508;-50
2021/10/11 00:03:44;;;;;;;0.30;0.20;;;;;;;3.24;100.00;101254.63;5053373;28;20501;-50
2021/10/11 00:06:11;;;;;;;0.30;0.20;;;;;;;3.28;100.00;101256.44;5053446;28;20465;-50
2021/10/11 00:08:38;;;;;;;1.10;1.00;;;;;;;3.35;100.00;101261.81;5053600;28;20473;-51
2021/10/11 00:11:04;;;;;;;0.30;0.20;;;;;;;3.44;100.00;101260.22;5053143;28;20903;-50
2021/10/11 00:13:31;;;;;;;0.30;0.20;;;;;;;3.91;100.00;101251.28;5053597;28;20885;-51
2021/10/11 00:15:58;;;;;;;0.33;0.23;;;;;;;3.54;100.00;101253.34;5052277;28;20865;-51
2021/10/11 00:18:25;;;;;;;0.40;0.40;;;;;;;3.34;100.00;101260.03;5043886;28;20447;-51
2021/10/11 00:20:52;;;;;;;1.90;0.63;;;;;;;3.32;100.00;101262.66;5052901;28;20474;-51
2021/10/11 00:23:19;;;;;;;1.57;1.47;;;;;;;3.15;100.00;101262.38;5053423;28;20466;-52
2021/10/11 00:25:46;;;;;;;0.30;0.20;;;;;;;2.93;100.00;101261.09;5053250;28;21328;-50
2021/10/11 00:28:13;;;;;;;0.30;0.20;;;;;;;2.90;100.00;101258.44;5056018;28;20450;-51
2021/10/11 00:30:40;;;;;;;1.53;1.43;;;;;;;2.84;100.00;101263.53;5057331;28;20531;-51
2021/10/11 00:33:07;;;;;;;0.30;0.20;;;;;;;2.93;100.00;101262.84;5057359;28;20447;-50
2021/10/11 00:35:34;;;;;;;0.50;0.50;;;;;;;2.70;100.00;101261.53;5056840;28;20856;-50
2021/10/11 00:38:01;;;;;;;0.30;0.20;;;;;;;2.99;100.00;101257.69;5045720;28;20522;-51
2021/10/11 00:40:28;;;;;;;0.30;0.20;;;;;;;3.14;100.00;101250.06;5055446;28;20462;-51
2021/10/11 00:42:55;;;;;;;0.80;0.80;;;;;;;2.95;100.00;101251.50;5057128;28;20510;-50
2021/10/11 00:45:22;;;;;;;3.87;2.47;;;;;;;3.14;100.00;101250.06;5056994;28;20572;-51
2021/10/11 00:47:49;;;;;;;0.30;0.20;;;;;;;3.02;100.00;101252.50;5053727;28;20450;-51
2021/10/11 00:50:16;;;;;;;0.50;0.50;;;;;;;3.04;100.00;101250.78;5051529;28;20516;-50
2021/10/11 00:52:43;;;;;;;0.30;0.30;;;;;;;2.95;100.00;101261.13;5056794;28;20898;-51
2021/10/11 00:55:10;;;;;;;0.30;0.20;;;;;;;2.89;100.00;101269.78;5050823;28;20501;-50
2021/10/11 00:57:37;;;;;;;0.30;0.20;;;;;;;2.82;100.00;101259.13;5050495;28;20520;-51
2021/10/11 01:00:06;;;;;;;0.87;0.70;;;;;;;2.98;100.00;101248.94;5056613;28;20521;-52
2021/10/11 01:02:33;;;;;;;0.30;0.20;;;;;;;3.04;100.00;101245.53;5056619;28;20800;-51
2021/10/11 01:05:00;;;;;;;1.13;0.93;;;;;;;3.00;100.00;101238.44;5056954;28;20504;-50
2021/10/11 01:07:27;;;;;;;0.30;0.20;;;;;;;3.06;100.00;101232.44;5055628;28;20443;-50
2021/10/11 01:09:54;;;;;;;7.70;3.60;;;;;;;2.98;100.00;101232.28;5057099;28;21426;-53
2021/10/11 01:12:21;;;;;;;0.30;0.10;;;;;;;2.90;100.00;101231.28;5056821;28;20442;-53
2021/10/11 01:14:48;;;;;;;0.30;0.20;;;;;;;2.99;100.00;101220.91;5056738;28;20462;-53
2021/10/11 01:17:15;;;;;;;0.30;0.20;;;;;;;3.10;100.00;101229.88;5046985;28;20491;-54
2021/10/11 01:19:48;;;;;;;0.30;0.20;;;;;;;3.20;100.00;101220.41;5056490;28;21008;-54
2021/10/11 01:22:17;;;;;;;0.30;0.20;;;;;;;3.27;100.00;101217.88;5056597;28;20451;-53
2021/10/11 01:24:44;;;;;;;0.30;0.20;;;;;;;3.01;100.00;101218.31;5056689;28;20462;-54
2021/10/11 01:27:11;;;;;;;0.30;0.20;;;;;;;2.96;100.00;101215.63;5043619;28;20470;-53
2021/10/11 01:29:38;;;;;;;0.73;0.73;;;;;;;2.84;100.00;101213.66;5056292;28;20463;-53
2021/10/11 01:32:06;;;;;;;0.30;0.20;;;;;;;3.21;100.00;101204.66;5056771;28;20474;-53
2021/10/11 01:34:33;;;;;;;0.30;0.20;;;;;;;3.04;100.00;101216.66;5056254;28;20820;-53
2021/10/11 01:36:59;;;;;;;0.30;0.20;;;;;;;2.93;100.00;101215.56;5056103;28;21027;-53
2021/10/11 01:39:26;;;;;;;0.30;0.20;;;;;;;3.23;100.00;101216.09;5045357;28;20468;-54
2021/10/11 01:41:55;;;;;;;0.83;0.83;;;;;;;3.13;100.00;101214.16;5052725;28;20474;-53
2021/10/11 01:44:22;;;;;;;0.30;0.20;;;;;;;3.08;100.00;101218.47;5056281;28;20474;-54
2021/10/11 01:46:49;;;;;;;0.30;0.20;;;;;;;3.01;100.00;101218.31;5052631;28;20446;-53
2021/10/11 01:49:16;;;;;;;1.40;1.40;;;;;;;3.02;100.00;101221.00;5056414;28;20477;-53
2021/10/11 01:51:43;;;;;;;0.30;0.20;;;;;;;2.97;100.00;101217.38;5056062;28;20446;-53
2021/10/11 01:54:10;;;;;;;0.83;0.83;;;;;;;3.07;100.00;101219.31;5056084;28;20483;-53
2021/10/11 01:56:37;;;;;;;1.13;1.13;;;;;;;3.06;100.00;101225.44;5054354;28;20450;-53
2021/10/11 01:59:04;;;;;;;0.30;0.20;;;;;;;2.90;100.00;101218.16;5055959;28;20508;-53
2021/10/11 02:01:31;;;;;;;0.30;0.20;;;;;;;3.19;100.00;101218.66;5055892;28;20451;-53
2021/10/11 02:03:58;;;;;;;0.30;0.20;;;;;;;3.18;100.00;101211.63;5042666;28;20884;-53
2021/10/11 02:06:24;;;;;;;0.43;0.40;;;;;;;2.96;100.00;101210.38;5029102;28;20497;-53
2021/10/11 02:08:52;;;;;;;0.30;0.20;;;;;;;3.15;100.00;101222.06;5055384;28;20943;-53
2021/10/11 02:11:18;;;;;;;0.30;0.30;;;;;;;3.12;100.00;101225.53;5055244;28;20455;-53
2021/10/11 02:13:47;;;;;;;0.30;0.13;;;;;;;3.04;100.00;101211.41;5055868;28;20496;-53
2021/10/11 02:16:14;;;;;;;0.30;0.20;;;;;;;3.15;100.00;101201.03;5053552;28;20447;-53
2021/10/11 02:18:41;;;;;;;0.30;0.10;;;;;;;3.60;100.00;101187.75;5049205;28;20487;-53
2021/10/11 02:21:08;;;;;;;0.30;0.20;;;;;;;3.39;100.00;101198.81;5055239;28;20470;-53
2021/10/11 02:23:35;;;;;;;0.50;0.50;;;;;;;3.47;100.00;101207.72;5055143;28;20466;-54
2021/10/11 02:26:02;;;;;;;0.30;0.20;;;;;;;3.06;100.00;101199.16;5055253;28;21001;-53
2021/10/11 02:28:29;;;;;;;0.30;0.17;;;;;;;3.63;100.00;101194.78;5055108;28;20446;-53
2021/10/11 02:30:56;;;;;;;0.30;0.20;;;;;;;3.33;100.00;101192.59;5054600;28;20995;-53
2021/10/11 02:33:23;;;;;;;0.30;0.20;;;;;;;3.23;100.00;101194.19;5054995;28;20451;-53
2021/10/11 02:35:50;;;;;;;0.30;0.20;;;;;;;3.18;100.00;101196.75;5055418;28;20508;-53
2021/10/11 02:38:17;;;;;;;0.30;0.20;;;;;;;3.10;100.00;101202.72;5054820;28;20888;-53
2021/10/11 02:40:44;;;;;;;0.63;0.63;;;;;;;3.04;100.00;101203.53;5055044;28;20477;-53
2021/10/11 02:43:10;;;;;;;0.30;0.10;;;;;;;2.88;100.00;101191.88;5055097;28;20479;-54
2021/10/11 02:45:37;;;;;;;0.40;0.20;;;;;;;2.98;100.00;101193.78;5055192;28;20516;-54
2021/10/11 02:48:05;;;;;;;0.30;0.10;;;;;;;3.18;100.00;101204.63;5052996;28;21029;-53
2021/10/11 02:50:33;;;;;;;0.40;0.40;;;;;;;2.95;100.00;101193.72;5040309;28;20543;-53
2021/10/11 02:53:00;;;;;;;0.30;0.20;;;;;;;2.78;100.00;101200.44;5050833;28;20475;-53
2021/10/11 02:55:27;;;;;;;0.40;0.30;;;;;;;2.75;100.00;101204.75;5054748;28;20482;-53
2021/10/11 02:57:54;;;;;;;0.30;0.20;;;;;;;2.77;100.00;101203.03;5052498;28;20498;-53
2021/10/11 03:00:21;;;;;;;0.30;0.10;;;;;;;2.73;100.00;101191.59;5054650;28;20471;-53
2021/10/11 03:02:48;;;;;;;0.40;0.30;;;;;;;2.83;100.00;101198.78;5054581;28;20883;-53
2021/10/11 03:05:14;;;;;;;1.60;1.50;;;;;;;2.88;100.00;101201.50;5054545;28;20450;-53
2021/10/11 03:07:41;;;;;;;0.30;0.20;;;;;;;3.02;100.00;101200.00;5054314;28;20439;-53
2021/10/11 03:10:09;;;;;;;2.57;2.47;;;;;;;2.81;100.00;101197.88;5054279;28;20479;-53
2021/10/11 03:12:36;;;;;;;0.33;0.30;;;;;;;2.91;100.00;101191.03;5053734;28;20483;-53
2021/10/11 03:15:04;;;;;;;0.30;0.10;;;;;;;2.96;100.00;101195.50;5054138;28;20454;-53
2021/10/11 03:17:31;;;;;;;0.30;0.20;;;;;;;2.94;100.00;101196.34;5045172;28;20486;-53
2021/10/11 03:19:59;;;;;;;0.30;0.10;;;;;;;2.92;100.00;101183.19;5054342;28;21057;-53
2021/10/11 03:22:27;;;;;;;0.40;0.40;;;;;;;2.95;100.00;101180.59;5054674;28;20450;-53
2021/10/11 03:24:54;;;;;;;0.30;0.20;;;;;;;2.90;100.00;101173.53;5054533;28;20479;-53
2021/10/11 03:27:21;;;;;;;0.20;0.20;;;;;;;2.81;100.00;101165.47;5054393;28;20447;-53
2021/10/11 03:29:48;;;;;;;0.20;0.10;;;;;;;2.86;100.00;101169.06;5054504;28;20462;-53
2021/10/11 03:32:15;;;;;;;0.30;0.20;;;;;;;2.89;100.00;101179.63;5054139;28;20455;-53
2021/10/11 03:34:42;;;;;;;1.80;1.70;;;;;;;2.84;100.00;101178.66;5054073;28;20482;-53
2021/10/11 03:37:09;;;;;;;0.30;0.20;;;;;;;2.97;100.00;101175.38;5053251;28;20475;-53
2021/10/11 03:39:36;;;;;;;0.30;0.30;;;;;;;2.93;100.00;101173.56;5053911;28;20475;-53
2021/10/11 03:42:03;;;;;;;0.30;0.17;;;;;;;2.92;100.00;101179.69;5054141;28;20888;-53
2021/10/11 03:44:30;;;;;;;0.30;0.20;;;;;;;2.63;100.00;101169.56;5054061;28;20446;-53
2021/10/11 03:46:56;;;;;;;0.30;0.20;;;;;;;2.73;100.00;101164.44;5050813;28;20454;-52
2021/10/11 03:49:23;;;;;;;0.63;0.63;;;;;;;2.90;100.00;101168.28;5048853;28;20467;-52
2021/10/11 03:51:50;;;;;;;0.30;0.20;;;;;;;2.62;100.00;101166.91;5053908;28;20447;-53
2021/10/11 03:54:17;;;;;;;4.43;2.90;;;;;;;2.70;100.00;101173.16;5054403;28;20447;-53
2021/10/11 03:56:44;;;;;;;0.30;0.20;;;;;;;2.73;100.00;101172.31;5053077;28;20504;-52
2021/10/11 03:59:11;;;;;;;0.30;0.20;;;;;;;2.69;100.00;101176.66;5053786;28;20494;-53
2021/10/11 04:01:39;;;;;;;0.30;0.20;;;;;;;2.72;100.00;101174.06;5027900;28;20469;-53
2021/10/11 04:04:07;;;;;;;0.30;0.20;;;;;;;2.87;100.00;101162.94;5064958;28;20447;-53
2021/10/11 04:06:34;;;;;;;0.30;0.20;;;;;;;2.95;100.00;101187.59;5066227;28;20455;-54
2021/10/11 04:09:01;;;;;;;0.30;0.20;;;;;;;3.08;100.00;101184.31;5064044;28;20484;-54
2021/10/11 04:11:30;;;;;;;0.70;0.70;;;;;;;2.86;100.00;101180.44;5050775;28;20481;-53
2021/10/11 04:13:57;;;;;;;0.30;0.20;;;;;;;2.84;100.00;101178.66;5062008;28;20497;-53
2021/10/11 04:16:24;;;;;;;0.30;0.20;;;;;;;2.88;100.00;101177.88;5049931;28;20484;-53
2021/10/11 04:18:51;;;;;;;0.30;0.20;;;;;;;2.85;100.00;101172.53;5047646;28;21003;-52
2021/10/11 04:21:18;;;;;;;0.30;0.20;;;;;;;2.90;100.00;101174.41;5053678;28;20473;-54
2021/10/11 04:23:45;;;;;;;0.30;0.20;;;;;;;2.86;100.00;101162.06;5053450;28;20504;-53
2021/10/11 04:26:12;;;;;;;0.30;0.20;;;;;;;2.89;100.00;101175.25;5053457;28;20477;-52
2021/10/11 04:28:39;;;;;;;0.30;0.10;;;;;;;2.74;100.00;101180.25;5053274;28;20447;-53
2021/10/11 04:31:06;;;;;;;0.30;0.20;;;;;;;2.73;100.00;101186.34;5053427;28;20470;-52
2021/10/11 04:33:33;;;;;;;0.20;0.20;;;;;;;2.62;100.00;101180.91;5051012;28;20451;-53
2021/10/11 04:36:00;;;;;;;0.30;0.20;;;;;;;2.73;100.00;101186.34;5042477;28;20503;-53
2021/10/11 04:38:27;;;;;;;2.93;1.43;;;;;;;3.10;100.00;101174.72;5039727;28;20502;-53
2021/10/11 04:40:59;;;;;;;0.30;0.20;;;;;;;2.81;100.00;101178.59;5053276;28;20474;-54
2021/10/11 04:43:28;;;;;;;0.30;0.10;;;;;;;2.74;100.00;101176.72;5039689;28;20451;-53
2021/10/11 04:45:55;;;;;;;0.73;0.73;;;;;;;2.64;100.00;101173.06;5053470;28;20897;-53
2021/10/11 04:48:23;;;;;;;7.33;1.33;;;;;;;2.85;100.00;101183.94;5048785;28;20491;-53
2021/10/11 04:50:50;;;;;;;0.30;0.20;;;;;;;2.79;100.00;101182.94;5047874;28;20508;-54
2021/10/11 04:53:17;;;;;;;0.30;0.17;;;;;;;2.74;100.00;101179.34;5051829;28;20447;-53
2021/10/11 04:55:44;;;;;;;0.30;0.20;;;;;;;2.77;100.00;101182.94;5052902;28;20508;-53
2021/10/11 04:58:11;;;;;;;0.30;0.20;;;;;;;2.73;100.00;101183.72;5051493;28;20536;-53
2021/10/11 05:00:38;;;;;;;0.20;0.20;;;;;;;2.82;100.00;101177.75;5053195;28;21028;-53
2021/10/11 05:03:05;;;;;;;0.30;0.20;;;;;;;2.71;100.00;101177.56;5053062;28;20501;-53
2021/10/11 05:05:32;;;;;;;0.30;0.20;;;;;;;2.76;100.00;101185.53;5040748;28;20451;-53
2021/10/11 05:08:00;;;;;;;0.30;0.20;;;;;;;2.71;100.00;101179.28;5052329;28;20446;-54
2021/10/11 05:10:27;;;;;;;0.30;0.20;;;;;;;2.70;100.00;101191.53;5052663;28;20528;-54
2021/10/11 05:12:54;;;;;;;0.30;0.20;;;;;;;2.65;100.00;101187.97;5053195;28;20450;-53
2021/10/11 05:15:21;;;;;;;0.20;0.10;;;;;;;2.72;100.00;101188.94;5056877;28;20467;-52
2021/10/11 05:17:49;;;;;;;0.30;0.20;;;;;;;2.71;100.00;101201.19;5047481;28;20521;-53
2021/10/11 05:20:16;;;;;;;0.20;0.20;;;;;;;2.73;100.00;101194.22;5056311;28;20466;-52
2021/10/11 05:22:43;;;;;;;0.30;0.20;;;;;;;2.77;100.00;101190.81;5056196;28;20459;-53
2021/10/11 05:25:10;;;;;;;0.30;0.20;;;;;;;2.78;100.00;101186.44;5055743;28;20443;-53
2021/10/11 05:27:37;;;;;;;0.30;0.10;;;;;;;2.77;100.00;101182.94;5056415;28;20516;-53
2021/10/11 05:30:05;;;;;;;0.30;0.20;;;;;;;2.80;100.00;101188.22;5056035;28;20987;-53
2021/10/11 05:32:33;;;;;;;10.97;1.33;;;;;;;2.76;100.00;101182.91;5055955;28;20446;-53
2021/10/11 05:35:01;;;;;;;0.50;0.50;;;;;;;2.92;100.00;101180.56;5056004;28;20454;-52
2021/10/11 05:37:29;;;;;;;0.53;0.53;;;;;;;2.88;100.00;101178.75;5056040;28;21001;-54
2021/10/11 05:39:57;;;;;;;0.50;0.50;;;;;;;2.76;100.00;101175.91;5056244;28;21225;-54
2021/10/11 05:42:23;;;;;;;0.30;0.20;;;;;;;2.87;100.00;101186.56;5056175;28;20447;-52
2021/10/11 05:44:51;;;;;;;0.30;0.20;;;;;;;2.83;100.00;101179.50;5055990;28;20458;-53
2021/10/11 05:47:18;;;;;;;0.20;0.10;;;;;;;2.88;100.00;101177.88;5053119;28;20446;-53
2021/10/11 05:49:45;;;;;;;0.20;0.10;;;;;;;2.93;100.00;101184.94;5050013;28;20468;-53
2021/10/11 05:52:12;;;;;;;0.30;0.20;;;;;;;2.96;100.00;101179.75;5055376;28;20936;-53
2021/10/11 05:54:39;;;;;;;0.30;0.20;;;;;;;2.80;100.00;101182.97;5055635;28;20455;-53
2021/10/11 05:57:06;;;;;;;0.30;0.20;;;;;;;2.96;100.00;101187.63;5053663;28;21008;-52
2021/10/11 05:59:33;;;;;;;0.30;0.20;;;;;;;2.83;100.00;101183.03;5055470;28;20526;-53
2021/10/11 06:02:00;;;;;;;0.20;0.20;;;;;;;3.01;100.00;101189.44;5055622;28;20447;-53
2021/10/11 06:04:27;;;;;;;1.33;1.33;;;;;;;3.13;100.00;101197.50;5055566;28;20516;-53
2021/10/11 06:06:53;;;;;;;0.30;0.10;;;;;;;3.19;100.00;101202.88;5056159;28;20457;-53
2021/10/11 06:09:20;;;;;;;0.30;0.10;;;;;;;3.28;100.00;101198.63;5055834;28;20904;-53
2021/10/11 06:11:48;;;;;;;0.30;0.20;;;;;;;3.40;100.00;101197.06;5055969;28;20894;-54
2021/10/11 06:14:15;;;;;;;0.30;0.20;;;;;;;3.48;100.00;101203.34;5054598;28;20451;-53
2021/10/11 06:16:42;;;;;;;0.30;0.10;;;;;;;3.58;100.00;101191.22;5048481;28;20459;-53
2021/10/11 06:19:13;;;;;;;0.30;0.10;;;;;;;3.58;100.00;101192.09;5051650;28;20498;-53
2021/10/11 06:21:39;;;;;;;0.73;0.73;;;;;;;3.85;100.00;101197.75;5054643;28;20878;-53
2021/10/11 06:24:09;;;;;;;0.30;0.20;;;;;;;3.51;100.00;101206.88;5054896;28;20485;-53
2021/10/11 06:26:36;;;;;;;0.20;0.20;;;;;;;3.69;100.00;101206.25;5054068;28;20727;-53
2021/10/11 06:29:03;;;;;;;0.30;0.20;;;;;;;3.74;100.00;101203.72;5054233;28;20485;-54
2021/10/11 06:31:30;;;;;;;0.53;0.53;;;;;;;3.93;100.00;101197.81;5054254;28;20481;-53
2021/10/11 06:33:57;;;;;;;4.13;1.60;;;;;;;3.99;100.00;101197.91;5054067;28;20479;-53
2021/10/11 06:36:26;;;;;;;0.30;0.20;;;;;;;4.01;100.00;101209.34;5054370;28;20458;-53
2021/10/11 06:38:53;;;;;;;0.30;0.10;;;;;;;4.08;100.00;101215.53;5053710;28;20540;-53
2021/10/11 06:41:20;;;;;;;0.30;0.20;;;;;;;4.13;100.00;101209.50;5054059;28;20500;-53
2021/10/11 06:43:46;;;;;;;0.30;0.20;;;;;;;4.24;100.00;101209.59;5054501;28;20837;-54
2021/10/11 06:46:13;;;;;;;0.30;0.20;;;;;;;4.48;100.00;101216.91;5051419;28;20569;-53
2021/10/11 06:48:40;;;;;;;0.40;0.40;;;;;;;4.54;100.00;101213.47;5052746;28;20512;-54
2021/10/11 06:51:07;;;;;;;0.53;0.53;;;;;;;4.66;100.00;101219.75;5048097;28;20502;-54
2021/10/11 06:53:34;;;;;;;0.60;0.60;;;;;;;4.76;100.00;101218.97;5053501;28;20528;-53
2021/10/11 06:56:02;;;;;;;1.53;1.53;;;;;;;4.78;100.00;101207.56;5051841;28;20935;-54
2021/10/11 06:58:29;;;;;;;0.30;0.20;;;;;;;4.72;100.00;101193.47;5053328;28;20922;-54
2021/10/11 07:00:56;;;;;;;1.43;1.33;;;;;;;4.78;100.00;101195.28;5053144;28;20516;-53
2021/10/11 07:03:24;;;;;;;0.30;0.20;;;;;;;5.04;100.00;101199.03;5053342;28;20446;-53
2021/10/11 07:06:05;;;;;;;0.80;0.77;;;;;;;5.36;100.00;101211.59;5053116;28;20497;-54
2021/10/11 07:08:33;;;;;;;0.30;0.20;;;;;;;5.50;100.00;101214.34;5052959;28;20439;-54
2021/10/11 07:11:00;;;;;;;0.57;0.57;;;;;;;5.84;100.00;101215.41;5053251;28;20604;-50
2021/10/11 07:13:27;;;;;;;2.50;2.50;;;;;;;5.70;100.00;101223.25;5052981;28;20857;-50
2021/10/11 07:15:58;;;;;;;2.20;2.00;;;;;;;5.70;100.00;101227.63;5052425;28;20451;-50
2021/10/11 07:18:25;;;;;;;2.20;2.10;;;;;;;5.79;100.00;101236.50;5043634;28;20491;-51
2021/10/11 07:20:52;;;;;;;0.30;0.20;;;;;;;5.76;100.00;101233.84;5052578;28;20471;-50
2021/10/11 07:23:19;;;;;;;0.40;0.33;;;;;;;5.81;100.00;101233.88;5052924;28;20512;-51
2021/10/11 07:25:46;;;;;;;0.47;0.47;;;;;;;5.82;100.00;101231.25;5052406;28;20508;-50
2021/10/11 07:28:13;;;;;;;1.23;1.23;;;;;;;6.02;100.00;101235.75;5052716;28;20516;-50
2021/10/11 07:30:40;;;;;;;0.30;0.20;;;;;;;6.14;100.00;101241.09;5052545;28;20521;-50
2021/10/11 07:33:07;;;;;;;1.53;1.43;;;;;;;6.25;100.00;101242.03;5052670;28;20501;-50
2021/10/11 07:35:35;;;;;;;3.30;2.00;;;;;;;6.23;100.00;101242.03;5052507;28;20451;-51
2021/10/11 07:38:03;;;;;;;0.30;0.20;;;;;;;6.33;100.00;101242.09;5052259;28;20496;-51
2021/10/11 07:40:50;;;;;;;0.30;0.20;;;;;;;6.37;100.00;101246.50;5052770;28;20475;-51
2021/10/11 07:43:19;;;;;;;0.30;0.20;;;;;;;6.51;100.00;101248.31;5052677;28;20451;-51
2021/10/11 07:45:46;;;;;;;2.30;2.30;;;;;;;6.59;100.00;101253.63;5052465;28;20470;-51
2021/10/11 07:48:13;;;;;;;0.30;0.20;;;;;;;6.63;100.00;101251.88;5048885;28;20963;-50
2021/10/11 07:50:40;;;;;;;0.30;0.10;;;;;;;6.75;100.00;101252.78;5047130;28;20471;-51
2021/10/11 07:53:07;;;;;;;0.40;0.40;;;;;;;6.86;100.00;101266.03;5050936;28;20509;-51
2021/10/11 07:55:34;;;;;;;0.30;0.20;;;;;;;6.94;100.00;101251.06;5052289;28;20493;-51
2021/10/11 07:58:01;;;;;;;0.30;0.20;;;;;;;6.95;100.00;101246.66;5051079;28;20512;-50
2021/10/11 08:00:28;;;;;;;0.30;0.20;;;;;;;6.96;100.00;101251.06;5052076;28;20969;-50
2021/10/11 08:02:55;;;;;;;0.30;0.20;;;;;;;6.93;100.00;101240.50;5052123;28;20447;-50
2021/10/11 08:05:22;;;;;;;0.30;0.20;;;;;;;7.02;100.00;101243.16;5052046;28;20809;-51
2021/10/11 08:07:49;;;;;;;0.47;0.47;;;;;;;7.12;100.00;101244.91;5051830;28;20455;-50
2021/10/11 08:10:16;;;;;;;0.70;0.67;;;;;;;7.09;100.00;101245.78;5052057;28;20474;-51
2021/10/11 08:12:43;;;;;;;0.50;0.50;;;;;;;7.19;100.00;101249.34;5052049;28;20447;-51
2021/10/11 08:15:10;;;;;;;0.30;0.20;;;;;;;7.25;100.00;101251.09;5051991;28;20512;-51
2021/10/11 08:17:38;;;;;;;0.30;0.20;;;;;;;7.29;100.00;101251.09;5043014;28;20451;-50
2021/10/11 08:20:06;;;;;;;0.40;0.30;;;;;;;7.36;100.00;101258.16;5051788;28;20518;-50
2021/10/11 08:22:33;;;;;;;0.40;0.40;;;;;;;7.40;100.00;101254.66;5051618;28;20897;-50
2021/10/11 08:25:00;;;;;;;0.30;0.20;;;;;;;7.51;100.00;101257.25;5051568;28;20446;-50
2021/10/11 08:27:28;;;;;;;0.30;0.20;;;;;;;7.84;100.00;101263.41;5051699;28;20967;-52
2021/10/11 08:29:55;;;;;;;0.30;0.20;;;;;;;7.83;100.00;101261.66;5051811;28;21060;-50
2021/10/11 08:32:29;;;;;;;1.90;1.90;;;;;;;7.77;100.00;101264.28;5052001;28;20867;-50
2021/10/11 08:34:56;;;;;;;0.30;0.20;;;;;;;8.21;100.00;101269.47;5052777;28;20470;-50
2021/10/11 08:37:23;;;;;;;0.30;0.20;;;;;;;7.88;100.00;101275.75;5052524;28;20483;-51
2021/10/11 08:39:50;;;;;;;0.40;0.30;;;;;;;7.89;100.00;101274.88;5052198;28;20525;-51
2021/10/11 08:42:20;;;;;;;0.63;0.63;;;;;;;7.83;100.00;101267.84;5052690;28;20501;-50
2021/10/11 08:44:48;;;;;;;2.30;0.60;;;;;;;7.88;100.00;101274.00;5053045;28;20450;-50
2021/10/11 08:47:15;;;;;;;0.70;0.70;;;;;;;7.98;100.00;101275.75;5049264;28;20454;-50
2021/10/11 08:49:44;;;;;;;0.30;0.20;;;;;;;7.82;100.00;101268.72;5049546;28;21000;-51
2021/10/11 08:52:13;;;;;;;0.30;0.20;;;;;;;7.87;100.00;101271.34;5055586;28;20473;-50
2021/10/11 08:54:43;;;;;;;1.33;1.27;;;;;;;7.87;100.00;101274.88;5055604;28;20932;-50
2021/10/11 08:57:24;;;;;;;6.67;0.83;;;;;;;7.80;100.00;101270.47;5054174;28;20485;-50
2021/10/11 08:59:52;;;;;;;0.30;0.20;;;;;;;7.79;100.00;101273.09;5055206;28;20494;-51
2021/10/11 09:02:21;;;;;;;0.93;0.93;;;;;;;7.85;100.00;101260.75;5055569;28;20501;-52
2021/10/11 09:04:56;;;;;;;0.70;0.70;;;;;;;7.86;100.00;101272.22;5055495;28;20511;-51
2021/10/11 09:07:26;;;;;;;1.63;0.73;;;;;;;7.94;100.00;101271.31;5055266;28;20441;-50
2021/10/11 09:09:55;;;;;;;0.53;0.53;;;;;;;7.98;100.00;101272.22;5055293;28;20875;-51
2021/10/11 09:12:28;;;;;;;1.60;1.50;;;;;;;8.07;100.00;101271.28;5055087;28;20470;-50
2021/10/11 09:15:13;;;;;;;0.30;0.20;;;;;;;8.10;100.00;101276.59;5055227;28;20446;-51
2021/10/11 09:17:48;;;;;;;0.30;0.20;;;;;;;8.09;100.00;101265.13;5054993;28;20451;-50
2021/10/11 09:20:15;;;;;;;0.40;0.30;;;;;;;8.21;100.00;101267.72;5054934;28;20521;-53
2021/10/11 09:22:44;;;;;;;0.93;0.93;;;;;;;8.24;100.00;101261.56;5028667;28;20486;-51
2021/10/11 09:25:12;;;;;;;0.30;0.20;;;;;;;8.25;100.00;101258.00;5055010;28;20500;-50
2021/10/11 09:27:43;;;;;;;0.30;0.20;;;;;;;8.45;100.00;101245.59;5055090;28;20450;-50
2021/10/11 09:30:11;;;;;;;0.93;0.93;;;;;;;8.56;100.00;101254.38;5054596;28;20470;-52
2021/10/11 09:32:38;;;;;;;0.50;0.50;;;;;;;8.70;100.00;101250.78;5054922;28;20489;-50
2021/10/11 09:35:14;;;;;;;0.30;0.20;;;;;;;8.83;100.00;101248.03;5054554;28;20486;-50
2021/10/11 09:37:41;;;;;;;0.30;0.20;;;;;;;8.93;100.00;101248.88;5055006;28;20446;-50
2021/10/11 09:40:09;;;;;;;2.40;2.30;;;;;;;9.09;100.00;101249.66;5054637;28;20498;-51
2021/10/11 09:42:36;;;;;;;1.73;1.10;;;;;;;9.08;100.00;101255.84;5054809;28;20474;-51
2021/10/11 09:45:05;;;;;;;1.83;1.83;;;;;;;9.09;100.00;101258.50;5054751;28;20529;-51
2021/10/11 09:47:40;;;;;;;0.30;0.20;;;;;;;9.23;100.00;101263.69;5053251;28;20857;-51
2021/10/11 09:50:09;;;;;;;0.30;0.20;;;;;;;9.52;100.00;101258.16;5048991;28;20462;-51
2021/10/11 09:52:39;;;;;;;2.20;1.97;;;;;;;9.38;100.00;101262.69;5054950;28;20481;-50
2021/10/11 09:55:08;;;;;;;1.07;1.07;;;;;;;9.35;100.00;101268.03;5054394;28;20489;-50
2021/10/11 09:57:35;;;;;;;0.60;0.60;;;;;;;9.42;100.00;101270.59;5053209;28;20884;-50
2021/10/11 10:00:10;;;;;;;2.60;1.83;;;;;;;9.47;100.00;101262.63;5053101;28;20494;-51
2021/10/11 10:02:43;;;;;;;0.30;0.20;;;;;;;9.49;100.00;101261.72;5054357;28;20446;-50
2021/10/11 10:05:26;;;;;;;2.53;2.33;;;;;;;9.54;100.00;101260.78;5054460;28;21010;-51
2021/10/11 10:07:56;;;;;;;0.30;0.20;;;;;;;9.93;100.00;101257.75;5052870;28;20936;-51
2021/10/11 10:10:25;;;;;;;0.30;0.20;;;;;;;9.93;100.00;101262.19;5054911;28;20490;-52
2021/10/11 10:12:53;;;;;;;0.83;0.83;;;;;;;9.81;100.00;101247.25;5054402;28;20485;-51
2021/10/11 10:15:32;;;;;;;4.00;0.70;;;;;;;10.02;100.00;101251.47;5052795;28;20960;-51
2021/10/11 10:18:07;;;;;;;1.90;1.37;;;;;;;10.25;100.00;101256.53;5048276;28;20485;-50
2021/10/11 10:20:36;;;;;;;0.40;0.30;;;;;;;10.41;100.00;101246.59;5053868;28;20494;-50
2021/10/11 10:23:04;;;;;;;13.33;1.70;;;;;;;10.58;100.00;101231.34;5052698;28;20450;-50
2021/10/11 10:25:32;;;;;;;0.30;0.20;;;;;;;10.54;100.00;101234.91;5053941;28;20446;-51
2021/10/11 10:28:10;;;;;;;0.40;0.40;;;;;;;10.96;100.00;101242.31;5053790;28;20482;-51
2021/10/11 10:30:38;;;;;;;0.40;0.40;;;;;;;11.08;100.00;101237.69;5053537;28;20528;-51
2021/10/11 10:33:07;;;;;;;0.97;0.97;;;;;;;10.97;100.00;101224.59;5053681;28;20462;-50
2021/10/11 10:35:39;;;;;;;0.70;0.67;;;;;;;10.99;100.00;101230.75;5052771;28;20951;-50
2021/10/11 10:38:20;;;;;;;1.07;1.07;;;;;;;11.10;100.00;101235.88;5052322;28;20451;-51
2021/10/11 10:40:48;;;;;;;0.87;0.87;;;;;;;11.24;100.00;101225.94;5053436;28;20992;-50
2021/10/11 10:43:17;;;;;;;0.40;0.40;;;;;;;11.46;100.00;101229.09;5053516;28;20493;-51
2021/10/11 10:45:48;;;;;;;1.13;1.13;;;;;;;11.53;100.00;101225.44;5053825;28;20451;-51
2021/10/11 10:48:16;;;;;;;1.60;1.50;;;;;;;11.89;100.00;101210.59;5053885;28;20486;-50
2021/10/11 10:50:43;;;;;;;0.60;0.60;;;;;;;12.06;100.00;101208.50;5047811;28;20485;-51
2021/10/11 10:53:11;;;;;;;2.87;2.30;;;;;;;12.49;100.00;101210.25;5053564;28;20474;-50
2021/10/11 10:55:41;;;;;;;0.43;0.43;;;;;;;12.65;100.00;101208.13;5053226;28;20624;-51
2021/10/11 10:58:10;;;;;;;0.40;0.40;;;;;;;12.83;100.00;101207.72;5051796;28;20446;-51
2021/10/11 11:00:39;;;;;;;0.30;0.30;;;;;;;12.90;100.00;101213.78;5053011;28;20868;-51
2021/10/11 11:03:13;;;;;;;0.57;0.57;;;;;;;13.03;100.00;101209.91;5053258;28;20481;-51
2021/10/11 11:05:44;;;;;;;0.63;0.63;;;;;;;13.30;100.00;101193.25;5053076;28;20447;-50
2021/10/11 11:08:32;;;;;;;5.13;2.63;;;;;;;13.53;100.00;101192.66;5053186;28;20454;-50
2021/10/11 11:11:00;;;;;;;0.40;0.30;;;;;;;13.45;100.00;101200.00;5053357;28;20471;-51
2021/10/11 11:13:27;;;;;;;6.57;2.63;;;;;;;13.67;100.00;101194.06;5053482;28;20450;-50
2021/10/11 11:15:54;;;;;;;3.33;0.83;;;;;;;13.75;100.00;101187.63;5052876;28;20923;-51
2021/10/11 11:18:24;;;;;;;0.40;0.40;;;;;;;14.00;100.00;101177.13;5052862;28;20501;-50
2021/10/11 11:20:53;;;;;;;1.33;1.17;;;;;;;14.19;100.00;101177.47;5053634;28;21055;-50
2021/10/11 11:23:24;;;;;;;0.40;0.40;;;;;;;14.19;100.00;101172.13;5053786;28;20501;-50
2021/10/11 11:25:54;;;;;;;3.63;1.67;;;;;;;14.32;100.00;101165.50;5052860;28;20968;-51
2021/10/11 11:28:25;;;;;;;1.70;0.50;;;;;;;14.56;100.00;101163.91;5053041;28;20521;-50